createdAt,value
2022-10-21T00:01:00.584Z,12.00
2022-10-21T00:03:29.014Z,11.93
2022-10-21T00:05:58.387Z,11.91
2022-10-21T00:08:26.630Z,11.99
2022-10-21T00:10:55.683Z,11.84
2022-10-21T00:13:24.515Z,12.01
2022-10-21T00:16:02.975Z,12.00
2022-10-21T00:18:31.775Z,11.88
2022-10-21T00:21:01.542Z,12.02
2022-10-21T00:23:29.573Z,11.83
2022-10-21T00:25:58.322Z,11.91
2022-10-21T00:28:26.957Z,11.87
2022-10-21T00:30:56.318Z,11.84
2022-10-21T00:33:27.314Z,11.87
2022-10-21T00:35:57.230Z,11.92
2022-10-21T00:38:27.134Z,11.94
2022-10-21T00:40:55.467Z,11.75
2022-10-21T00:43:23.769Z,11.95
2022-10-21T00:45:53.858Z,11.75
2022-10-21T00:48:26.449Z,11.85
2022-10-21T00:50:56.549Z,11.65
2022-10-21T00:53:27.145Z,11.64
2022-10-21T00:56:00.596Z,11.58
2022-10-21T00:58:31.597Z,11.61
2022-10-21T01:01:00.989Z,11.56
2022-10-21T01:03:30.633Z,11.70
2022-10-21T01:06:00.442Z,11.55
2022-10-21T01:08:30.208Z,11.32
2022-10-21T01:10:59.268Z,11.41
2022-10-21T01:13:35.256Z,11.55
2022-10-21T01:16:10.314Z,11.45
2022-10-21T01:18:45.536Z,11.43
2022-10-21T01:21:31.348Z,11.26
2022-10-21T01:24:29.008Z,11.35
2022-10-21T01:27:04.935Z,11.34
2022-10-21T01:29:53.911Z,11.32
2022-10-21T01:32:29.832Z,11.25
2022-10-21T01:35:02.981Z,11.21
2022-10-21T01:37:40.004Z,11.11
2022-10-21T01:40:11.805Z,11.14
2022-10-21T01:42:43.784Z,11.34
2022-10-21T01:45:15.594Z,11.39
2022-10-21T01:47:48.483Z,11.26
2022-10-21T01:50:18.572Z,11.39
2022-10-21T01:52:49.803Z,11.30
2022-10-21T01:55:21.684Z,11.45
2022-10-21T01:57:54.035Z,11.25
2022-10-21T02:00:23.163Z,11.19
2022-10-21T02:02:52.825Z,11.16
2022-10-21T02:05:25.388Z,11.08
2022-10-21T02:07:53.430Z,11.23
2022-10-21T02:10:21.964Z,11.27
2022-10-21T02:12:51.867Z,11.19
2022-10-21T02:15:21.273Z,11.19
2022-10-21T02:17:56.929Z,11.35
2022-10-21T02:20:26.215Z,11.24
2022-10-21T02:22:54.525Z,11.18
2022-10-21T02:25:25.159Z,11.43
2022-10-21T02:27:53.702Z,11.32
2022-10-21T02:30:22.089Z,11.09
2022-10-21T02:32:55.326Z,11.21
2022-10-21T02:35:30.894Z,11.32
2022-10-21T02:38:02.810Z,11.34
2022-10-21T02:40:35.243Z,11.35
2022-10-21T02:43:06.743Z,11.38
2022-10-21T02:45:35.542Z,11.23
2022-10-21T02:48:05.279Z,11.36
2022-10-21T02:50:33.593Z,11.12
2022-10-21T02:53:01.643Z,11.17
2022-10-21T02:55:29.665Z,11.20
2022-10-21T02:57:57.675Z,11.43
2022-10-21T03:00:29.549Z,11.30
2022-10-21T03:03:00.667Z,11.33
2022-10-21T03:08:03.173Z,11.38
2022-10-21T03:10:31.248Z,11.70
2022-10-21T03:12:59.233Z,11.14
2022-10-21T03:15:27.316Z,11.22
2022-10-21T03:17:55.382Z,11.30
2022-10-21T03:20:23.633Z,11.42
2022-10-21T03:22:53.038Z,11.23
2022-10-21T03:25:21.143Z,11.18
2022-10-21T03:27:50.913Z,11.00
2022-10-21T03:30:19.061Z,11.15
2022-10-21T03:32:47.109Z,11.04
2022-10-21T03:35:15.295Z,11.12
2022-10-21T03:37:43.342Z,11.22
2022-10-21T03:40:13.393Z,11.37
2022-10-21T03:42:41.845Z,11.46
2022-10-21T03:45:10.889Z,11.00
2022-10-21T03:47:38.970Z,11.06
2022-10-21T03:50:11.890Z,10.95
2022-10-21T03:52:42.086Z,11.07
2022-10-21T03:55:10.585Z,11.44
2022-10-21T03:57:40.130Z,11.29
2022-10-21T04:00:09.653Z,11.02
2022-10-21T04:02:40.871Z,11.04
2022-10-21T04:05:10.215Z,11.02
2022-10-21T04:07:38.423Z,10.93
2022-10-21T04:10:07.234Z,11.11
2022-10-21T04:12:35.653Z,10.78
2022-10-21T04:15:05.780Z,10.96
2022-10-21T04:17:33.854Z,11.06
2022-10-21T04:20:01.862Z,10.77
2022-10-21T04:22:29.912Z,10.79
2022-10-21T04:24:59.772Z,10.81
2022-10-21T04:27:30.286Z,10.84
2022-10-21T04:29:58.319Z,10.73
2022-10-21T04:32:27.753Z,10.72
2022-10-21T04:34:55.790Z,10.89
2022-10-21T04:37:23.792Z,10.68
2022-10-21T04:39:51.827Z,10.68
2022-10-21T04:42:19.842Z,10.71
2022-10-21T04:44:47.893Z,10.81
2022-10-21T04:47:16.077Z,10.69
2022-10-21T04:49:45.433Z,10.49
2022-10-21T04:52:13.736Z,10.73
2022-10-21T04:54:41.699Z,10.66
2022-10-21T04:57:09.753Z,10.57
2022-10-21T04:59:37.767Z,10.44
2022-10-21T05:02:05.909Z,10.46
2022-10-21T05:04:33.957Z,10.39
2022-10-21T05:07:03.526Z,10.45
2022-10-21T05:09:31.543Z,10.37
2022-10-21T05:11:59.663Z,10.38
2022-10-21T05:14:27.704Z,10.36
2022-10-21T05:16:55.788Z,10.15
2022-10-21T05:19:26.518Z,10.15
2022-10-21T05:21:55.770Z,10.14
2022-10-21T05:24:25.200Z,10.21
2022-10-21T05:26:53.235Z,10.01
2022-10-21T05:29:21.297Z,10.26
2022-10-21T05:31:49.357Z,10.14
2022-10-21T05:34:17.425Z,10.27
2022-10-21T05:36:45.421Z,10.21
2022-10-21T05:39:13.430Z,9.90
2022-10-21T05:41:45.497Z,10.08
2022-10-21T05:44:15.972Z,10.10
2022-10-21T05:46:44.018Z,10.08
2022-10-21T05:49:13.132Z,10.12
2022-10-21T05:51:41.156Z,10.03
2022-10-21T05:54:09.164Z,10.04
2022-10-21T05:56:37.333Z,9.99
2022-10-21T05:59:09.378Z,9.83
2022-10-21T06:01:39.667Z,9.97
2022-10-21T06:04:08.092Z,10.04
2022-10-21T06:06:36.136Z,10.03
2022-10-21T06:09:05.046Z,10.20
2022-10-21T06:11:33.280Z,10.06
2022-10-21T06:14:01.345Z,10.32
2022-10-21T06:16:30.837Z,10.24
2022-10-21T06:18:58.918Z,10.08
2022-10-21T06:21:27.023Z,10.12
2022-10-21T06:23:55.366Z,10.13
2022-10-21T06:26:23.433Z,10.36
2022-10-21T06:28:51.461Z,10.23
2022-10-21T06:31:21.552Z,10.47
2022-10-21T06:33:51.068Z,10.33
2022-10-21T06:36:19.177Z,10.15
2022-10-21T06:38:47.232Z,10.18
2022-10-21T06:41:15.777Z,10.38
2022-10-21T06:43:43.977Z,10.59
2022-10-21T06:46:14.297Z,10.55
2022-10-21T06:48:42.691Z,10.51
2022-10-21T06:51:15.445Z,10.52
2022-10-21T06:53:43.589Z,10.57
2022-10-21T06:56:13.936Z,10.39
2022-10-21T06:58:43.430Z,10.65
2022-10-21T07:01:27.185Z,10.75
2022-10-21T07:04:01.082Z,10.83
2022-10-21T07:06:30.788Z,10.86
2022-10-21T07:08:59.329Z,10.98
2022-10-21T07:11:27.899Z,11.15
2022-10-21T07:13:56.147Z,11.19
2022-10-21T07:16:29.833Z,11.38
2022-10-21T07:18:59.469Z,11.61
2022-10-21T07:21:33.423Z,11.41
2022-10-21T07:24:01.968Z,11.85
2022-10-21T07:26:31.432Z,12.09
2022-10-21T07:29:00.715Z,11.68
2022-10-21T07:31:30.092Z,11.88
2022-10-21T07:33:58.172Z,11.65
2022-10-21T07:36:28.327Z,11.55
2022-10-21T07:39:00.231Z,11.71
2022-10-21T07:41:30.165Z,11.86
2022-10-21T07:43:58.945Z,11.98
2022-10-21T07:46:27.235Z,11.83
2022-10-21T07:48:55.866Z,12.16
2022-10-21T07:51:28.485Z,12.17
2022-10-21T07:53:59.286Z,12.11
2022-10-21T07:56:30.139Z,12.21
2022-10-21T07:58:58.216Z,12.10
2022-10-21T08:01:26.799Z,12.23
2022-10-21T08:03:55.739Z,12.53
2022-10-21T08:06:24.242Z,12.69
2022-10-21T08:08:52.524Z,12.68
2022-10-21T08:11:26.639Z,12.72
2022-10-21T08:13:55.992Z,12.76
2022-10-21T08:16:24.267Z,12.76
2022-10-21T08:18:52.445Z,12.60
2022-10-21T08:21:20.610Z,12.69
2022-10-21T08:23:48.907Z,12.59
2022-10-21T08:26:17.531Z,12.64
2022-10-21T08:28:47.408Z,12.72
2022-10-21T08:31:19.172Z,13.01
2022-10-21T08:33:50.552Z,12.92
2022-10-21T08:36:21.067Z,13.40
2022-10-21T08:38:49.660Z,13.44
2022-10-21T08:41:36.455Z,13.21
2022-10-21T08:44:08.377Z,13.15
2022-10-21T08:46:39.181Z,13.17
2022-10-21T08:49:10.845Z,13.43
2022-10-21T08:51:41.599Z,13.31
2022-10-21T08:54:14.644Z,13.14
2022-10-21T08:56:42.874Z,13.38
2022-10-21T08:59:19.552Z,13.41
2022-10-21T09:01:55.170Z,13.36
2022-10-21T09:04:28.802Z,13.54
2022-10-21T09:07:01.089Z,13.10
2022-10-21T09:09:31.959Z,13.09
2022-10-21T09:12:08.243Z,13.05
2022-10-21T09:14:57.416Z,13.19
2022-10-21T09:17:39.809Z,13.29
2022-10-21T09:20:16.255Z,13.22
2022-10-21T09:22:52.715Z,13.47
2022-10-21T09:25:22.966Z,13.19
2022-10-21T09:27:56.330Z,13.22
2022-10-21T09:30:26.806Z,13.32
2022-10-21T09:32:58.751Z,13.44
2022-10-21T09:35:33.756Z,13.28
2022-10-21T09:38:05.087Z,13.42
2022-10-21T09:40:34.007Z,13.36
2022-10-21T09:43:02.398Z,13.26
2022-10-21T09:45:34.708Z,13.43
2022-10-21T09:48:06.203Z,13.31
2022-10-21T09:50:35.729Z,13.69
2022-10-21T09:53:10.813Z,13.76
2022-10-21T09:55:40.011Z,13.74
2022-10-21T09:58:08.265Z,13.87
2022-10-21T10:00:46.491Z,14.10
2022-10-21T10:03:30.761Z,14.06
2022-10-21T10:05:58.891Z,13.83
2022-10-21T10:08:35.363Z,13.72
2022-10-21T10:11:20.391Z,13.54
2022-10-21T10:13:50.340Z,13.68
2022-10-21T10:16:26.270Z,13.54
2022-10-21T10:18:55.733Z,13.80
2022-10-21T10:21:24.039Z,13.61
2022-10-21T10:23:54.141Z,13.84
2022-10-21T10:26:27.302Z,13.76
2022-10-21T10:28:57.312Z,13.74
2022-10-21T10:31:29.977Z,13.65
2022-10-21T10:34:00.826Z,13.44
2022-10-21T10:36:32.062Z,13.49
2022-10-21T10:39:01.203Z,13.60
2022-10-21T10:41:36.431Z,13.65
2022-10-21T10:44:10.766Z,13.69
2022-10-21T10:46:40.862Z,13.54
2022-10-21T10:49:22.667Z,13.85
2022-10-21T10:52:07.484Z,13.70
2022-10-21T10:54:36.320Z,14.08
2022-10-21T10:57:06.856Z,13.97
2022-10-21T10:59:38.926Z,13.98
2022-10-21T11:02:20.611Z,13.94
2022-10-21T11:05:05.156Z,13.95
2022-10-21T11:07:35.782Z,13.87
2022-10-21T11:10:06.454Z,13.75
2022-10-21T11:12:34.654Z,14.07
2022-10-21T11:15:03.004Z,14.06
2022-10-21T11:17:39.130Z,14.03
2022-10-21T11:20:12.911Z,13.97
2022-10-21T11:22:45.285Z,14.40
2022-10-21T11:25:20.974Z,14.55
2022-10-21T11:27:59.304Z,14.38
2022-10-21T11:30:34.084Z,14.17
2022-10-21T11:33:11.853Z,14.46
2022-10-21T11:35:52.097Z,14.41
2022-10-21T11:38:49.369Z,14.49
2022-10-21T11:41:31.657Z,14.32
2022-10-21T11:44:13.292Z,14.39
2022-10-21T11:46:47.192Z,14.35
2022-10-21T11:49:30.629Z,14.58
2022-10-21T11:52:09.590Z,14.46
2022-10-21T11:55:09.366Z,14.36
2022-10-21T11:57:46.961Z,14.46
2022-10-21T12:00:17.569Z,14.64
2022-10-21T12:02:50.412Z,14.65
2022-10-21T12:05:28.260Z,15.04
2022-10-21T12:08:10.173Z,14.77
2022-10-21T12:10:44.837Z,14.64
2022-10-21T12:13:18.268Z,14.56
2022-10-21T12:15:49.617Z,14.64
2022-10-21T12:18:19.855Z,14.57
2022-10-21T12:20:55.369Z,14.88
2022-10-21T12:23:27.007Z,14.97
2022-10-21T12:26:04.403Z,14.45
2022-10-21T12:28:37.128Z,14.78
2022-10-21T12:31:15.265Z,14.45
2022-10-21T12:33:45.339Z,14.45
2022-10-21T12:36:19.461Z,14.47
2022-10-21T12:38:49.800Z,14.57
2022-10-21T12:41:34.451Z,14.27
2022-10-21T12:44:13.315Z,14.55
2022-10-21T12:46:43.821Z,14.32
2022-10-21T12:49:23.920Z,14.20
2022-10-21T12:51:56.640Z,14.35
2022-10-21T12:54:30.340Z,14.38
2022-10-21T12:57:04.019Z,14.04
2022-10-21T12:59:37.046Z,14.34
2022-10-21T13:02:24.492Z,14.12
2022-10-21T13:04:57.791Z,14.26
2022-10-21T13:07:40.453Z,14.52
2022-10-21T13:10:28.174Z,14.51
2022-10-21T13:13:31.983Z,14.48
2022-10-21T13:16:04.303Z,14.47
2022-10-21T13:18:58.263Z,14.26
2022-10-21T13:21:37.795Z,14.72
2022-10-21T13:24:26.460Z,14.72
2022-10-21T13:26:57.699Z,14.56
2022-10-21T13:29:45.009Z,14.36
2022-10-21T13:32:34.950Z,14.34
2022-10-21T13:35:26.628Z,14.37
2022-10-21T13:37:59.883Z,14.44
2022-10-21T13:40:36.097Z,14.35
2022-10-21T13:43:08.708Z,14.65
2022-10-21T13:45:43.468Z,14.47
2022-10-21T13:48:14.724Z,14.32
2022-10-21T13:50:49.181Z,14.58
2022-10-21T13:53:29.979Z,14.36
2022-10-21T13:56:03.152Z,14.15
2022-10-21T13:58:36.109Z,14.22
2022-10-21T14:01:16.896Z,14.25
2022-10-21T14:03:45.787Z,14.19
2022-10-21T14:06:32.321Z,14.25
2022-10-21T14:09:01.963Z,14.17
2022-10-21T14:11:37.493Z,14.41
2022-10-21T14:14:10.131Z,14.31
2022-10-21T14:16:41.759Z,14.06
2022-10-21T14:19:12.572Z,14.03
2022-10-21T14:21:45.153Z,14.11
2022-10-21T14:24:27.654Z,14.16
2022-10-21T14:26:57.714Z,14.22
2022-10-21T14:29:33.141Z,14.15
2022-10-21T14:32:01.948Z,14.11
2022-10-21T14:34:31.728Z,14.08
2022-10-21T14:37:01.977Z,14.04
2022-10-21T14:39:30.685Z,14.10
2022-10-21T14:42:06.288Z,14.03
2022-10-21T14:44:34.472Z,14.06
2022-10-21T14:47:03.388Z,13.91
2022-10-21T14:49:33.888Z,14.00
2022-10-21T14:52:06.061Z,13.95
2022-10-21T14:54:42.828Z,14.02
2022-10-21T14:57:27.153Z,13.78
2022-10-21T14:59:55.425Z,13.90
2022-10-21T15:02:27.142Z,13.56
2022-10-21T15:04:57.004Z,13.59
2022-10-21T15:07:30.495Z,13.57
2022-10-21T15:10:15.163Z,13.57
2022-10-21T15:12:45.597Z,13.64
2022-10-21T15:15:48.365Z,13.65
2022-10-21T15:18:23.601Z,13.50
2022-10-21T15:20:54.120Z,13.50
2022-10-21T15:23:25.555Z,13.53
2022-10-21T15:25:56.135Z,13.50
2022-10-21T15:28:28.328Z,13.38
2022-10-21T15:30:59.566Z,13.40
2022-10-21T15:33:28.556Z,13.43
2022-10-21T15:36:04.670Z,13.40
2022-10-21T15:38:33.903Z,13.43
2022-10-21T15:41:02.147Z,13.48
2022-10-21T15:43:31.891Z,13.42
2022-10-21T15:46:00.171Z,13.42
2022-10-21T15:48:29.224Z,13.47
2022-10-21T15:50:58.069Z,13.38
2022-10-21T15:53:26.094Z,13.36
2022-10-21T15:55:54.493Z,13.50
2022-10-21T15:58:22.897Z,13.45
2022-10-21T16:00:53.425Z,13.22
2022-10-21T16:03:22.625Z,13.29
2022-10-21T16:05:51.561Z,13.17
2022-10-21T16:08:19.950Z,13.12
2022-10-21T16:10:50.273Z,13.33
2022-10-21T16:13:20.206Z,13.31
2022-10-21T16:15:48.870Z,13.28
2022-10-21T16:18:18.884Z,13.23
2022-10-21T16:20:47.438Z,13.18
2022-10-21T16:23:15.927Z,13.15
2022-10-21T16:25:45.042Z,13.17
2022-10-21T16:28:13.683Z,13.16
2022-10-21T16:30:42.517Z,13.07
2022-10-21T16:33:11.297Z,13.07
2022-10-21T16:35:41.113Z,13.12
2022-10-21T16:38:10.583Z,13.13
2022-10-21T16:40:39.272Z,12.92
2022-10-21T16:43:08.686Z,13.10
2022-10-21T16:45:37.113Z,12.90
2022-10-21T16:48:06.140Z,13.02
2022-10-21T16:50:39.892Z,12.95
2022-10-21T16:53:15.060Z,12.79
2022-10-21T16:55:43.951Z,12.83
2022-10-21T16:58:12.054Z,12.94
2022-10-21T17:00:41.657Z,12.87
2022-10-21T17:03:12.480Z,12.93
2022-10-21T17:05:41.154Z,12.87
2022-10-21T17:08:11.582Z,12.93
2022-10-21T17:10:40.078Z,12.93
2022-10-21T17:13:08.459Z,12.84
2022-10-21T17:15:38.195Z,12.91
2022-10-21T17:18:13.189Z,12.90
2022-10-21T17:20:44.923Z,12.84
2022-10-21T17:23:15.465Z,12.86
2022-10-21T17:25:43.923Z,12.72
2022-10-21T17:28:12.857Z,12.75
2022-10-21T17:30:41.883Z,12.76
2022-10-21T17:33:15.346Z,12.82
2022-10-21T17:35:45.113Z,12.81
2022-10-21T17:38:15.192Z,12.78
2022-10-21T17:40:44.013Z,12.72
2022-10-21T17:43:15.085Z,12.83
2022-10-21T17:45:43.950Z,12.77
2022-10-21T17:48:13.167Z,12.72
2022-10-21T17:50:42.923Z,12.68
2022-10-21T17:53:13.829Z,12.70
2022-10-21T17:55:46.422Z,12.73
2022-10-21T17:58:16.328Z,12.54
2022-10-21T18:00:48.726Z,12.54
2022-10-21T18:03:20.114Z,12.67
2022-10-21T18:05:50.320Z,12.73
2022-10-21T18:08:20.207Z,12.55
2022-10-21T18:10:59.001Z,12.60
2022-10-21T18:13:30.807Z,12.60
2022-10-21T18:16:08.324Z,12.43
2022-10-21T18:18:39.550Z,12.59
2022-10-21T18:21:10.600Z,12.45
2022-10-21T18:23:42.553Z,12.46
2022-10-21T18:26:15.498Z,12.46
2022-10-21T18:28:45.673Z,12.42
2022-10-21T18:31:15.002Z,12.35
2022-10-21T18:33:44.368Z,12.43
2022-10-21T18:36:14.969Z,12.40
2022-10-21T18:38:43.285Z,12.39
2022-10-21T18:41:20.057Z,12.39
2022-10-21T18:43:51.851Z,12.20
2022-10-21T18:46:23.143Z,12.43
2022-10-21T18:48:53.218Z,12.29
2022-10-21T18:51:24.396Z,12.42
2022-10-21T18:53:54.763Z,12.36
2022-10-21T18:56:27.248Z,12.45
2022-10-21T18:58:58.783Z,12.35
2022-10-21T19:01:28.403Z,12.29
2022-10-21T19:03:58.436Z,12.34
2022-10-21T19:06:40.330Z,12.40
2022-10-21T19:09:13.412Z,12.30
2022-10-21T19:11:45.717Z,12.45
2022-10-21T19:14:18.756Z,12.38
2022-10-21T19:16:50.719Z,12.39
2022-10-21T19:19:20.181Z,12.38
2022-10-21T19:21:49.659Z,12.30
2022-10-21T19:24:19.749Z,12.39
2022-10-21T19:26:53.649Z,12.34
2022-10-21T19:29:25.081Z,12.33
2022-10-21T19:31:56.787Z,12.31
2022-10-21T19:34:27.771Z,12.19
2022-10-21T19:36:57.801Z,12.37
2022-10-21T19:39:27.380Z,12.29
2022-10-21T19:42:00.106Z,12.24
2022-10-21T19:44:31.024Z,12.23
2022-10-21T19:47:03.171Z,12.30
2022-10-21T19:49:33.575Z,12.36
2022-10-21T19:52:03.608Z,12.19
2022-10-21T19:54:32.950Z,12.21
2022-10-21T19:57:03.749Z,12.38
2022-10-21T19:59:32.719Z,12.34
2022-10-21T20:02:01.692Z,12.21
2022-10-21T20:04:33.878Z,12.24
2022-10-21T20:07:07.495Z,12.25
2022-10-21T20:09:38.881Z,12.26
2022-10-21T20:12:11.504Z,12.40
2022-10-21T20:14:44.460Z,12.34
2022-10-21T20:17:16.095Z,12.40
2022-10-21T20:19:48.590Z,12.41
2022-10-21T20:22:17.455Z,12.34
2022-10-21T20:24:46.480Z,12.20
2022-10-21T20:27:17.287Z,12.30
2022-10-21T20:29:46.352Z,12.29
2022-10-21T20:32:15.559Z,12.25
2022-10-21T20:34:45.056Z,12.23
2022-10-21T20:37:13.707Z,12.30
2022-10-21T20:39:45.834Z,12.31
2022-10-21T20:42:14.280Z,12.50
2022-10-21T20:47:19.210Z,12.33
2022-10-21T20:49:47.794Z,12.29
2022-10-21T20:52:15.932Z,12.30
2022-10-21T20:54:44.019Z,12.13
2022-10-21T20:57:12.526Z,12.20
2022-10-21T20:59:40.585Z,12.32
2022-10-21T21:02:10.994Z,12.15
2022-10-21T21:04:39.166Z,12.18
2022-10-21T21:07:07.181Z,12.42
2022-10-21T21:10:01.034Z,12.25
2022-10-21T21:12:23.333Z,12.31
2022-10-21T21:14:51.387Z,12.33
2022-10-21T21:17:20.814Z,12.29
2022-10-21T21:19:48.930Z,12.38
2022-10-21T21:22:16.969Z,12.36
2022-10-21T21:24:45.098Z,12.37
2022-10-21T21:27:13.105Z,12.22
2022-10-21T21:29:41.170Z,12.30
2022-10-21T21:32:09.192Z,12.31
2022-10-21T21:34:38.594Z,12.25
2022-10-21T21:37:06.695Z,12.07
2022-10-21T21:39:34.709Z,12.13
2022-10-21T21:42:02.797Z,11.97
2022-10-21T21:44:30.824Z,12.14
2022-10-21T21:46:58.888Z,12.11
2022-10-21T21:49:27.062Z,12.02
2022-10-21T21:51:56.482Z,12.22
2022-10-21T21:54:24.536Z,12.25
2022-10-21T21:56:57.382Z,12.30
2022-10-21T21:59:40.664Z,12.19
2022-10-21T22:02:09.207Z,12.00
2022-10-21T22:04:39.364Z,12.03
2022-10-21T22:07:08.879Z,12.21
2022-10-21T22:09:36.918Z,12.12
2022-10-21T22:12:05.873Z,12.09
2022-10-21T22:14:34.071Z,12.09
2022-10-21T22:17:02.137Z,12.15
2022-10-21T22:19:30.176Z,12.05
2022-10-21T22:21:58.531Z,12.11
2022-10-21T22:24:27.955Z,11.84
2022-10-21T22:26:56.162Z,11.97
2022-10-21T22:29:24.197Z,12.01
2022-10-21T22:31:52.246Z,12.00
2022-10-21T22:34:20.293Z,12.02
2022-10-21T22:36:48.370Z,12.04
2022-10-21T22:39:16.434Z,12.00
2022-10-21T22:41:45.913Z,11.90
2022-10-21T22:44:14.241Z,12.05
2022-10-21T22:46:42.252Z,11.97
2022-10-21T22:49:11.021Z,12.14
2022-10-21T22:51:39.122Z,12.10
2022-10-21T22:54:14.989Z,12.11
2022-10-21T22:56:48.936Z,11.94
2022-10-21T22:59:16.988Z,11.98
2022-10-21T23:01:45.071Z,11.90
2022-10-21T23:04:13.129Z,11.85
2022-10-21T23:06:41.719Z,11.87
2022-10-21T23:09:09.919Z,11.81
2022-10-21T23:11:37.979Z,11.90
2022-10-21T23:14:09.478Z,11.78
2022-10-21T23:16:38.437Z,11.75
2022-10-21T23:19:06.740Z,11.87
2022-10-21T23:21:34.946Z,11.84
2022-10-21T23:24:03.061Z,11.72
2022-10-21T23:26:31.119Z,11.71
2022-10-21T23:28:59.336Z,11.74
2022-10-21T23:31:28.850Z,11.83
2022-10-21T23:33:57.002Z,11.78
2022-10-21T23:36:25.096Z,11.89
2022-10-21T23:38:58.367Z,11.98
2022-10-21T23:41:26.569Z,11.84
2022-10-21T23:43:54.821Z,11.82
2022-10-21T23:46:23.234Z,11.80
2022-10-21T23:48:52.778Z,11.67
2022-10-21T23:51:20.875Z,11.90
2022-10-21T23:53:49.225Z,11.68
2022-10-21T23:56:17.345Z,11.83
2022-10-21T23:58:45.453Z,11.91
